Time;durP1;ratioP1;P1;durP2;ratioP2;P2;SDS_P1;SDS_P2;PMS_P1;PMS_P2;Temp;Humidity;BMP_temperature;BMP_pressure;BME280_temperature;BME280_humidity;BME280_pressure;Samples;Min_cycle;Max_cycle;Signal;HPM_P1;HPM_P2
2021/01/20 00:00:49;;;;;;;6.20;3.97;;;;;;;6.21;82.27;99731.61;119046;1157;65015;-81
2021/01/20 00:03:15;;;;;;;5.75;4.30;;;;;;;6.17;81.66;99743.47;119131;1157;65194;-81
2021/01/20 00:05:42;;;;;;;6.40;4.65;;;;;;;6.14;81.74;99731.44;119091;1157;65443;-81
2021/01/20 00:08:08;;;;;;;5.67;3.50;;;;;;;6.11;81.77;99737.06;118757;1157;65130;-82
2021/01/20 00:10:34;;;;;;;5.90;4.45;;;;;;;6.08;81.55;99732.15;118781;1157;65081;-81
2021/01/20 00:13:00;;;;;;;5.53;3.93;;;;;;;6.06;81.77;99724.41;118835;1157;65242;-80
2021/01/20 00:15:27;;;;;;;6.23;3.77;;;;;;;6.01;81.61;99726.71;118632;1157;65070;-82
2021/01/20 00:17:53;;;;;;;8.20;3.70;;;;;;;5.99;81.06;99733.14;118992;1157;65134;-82
2021/01/20 00:20:19;;;;;;;5.60;3.97;;;;;;;5.98;80.59;99727.06;119026;1157;65166;-81
2021/01/20 00:22:49;;;;;;;6.33;3.90;;;;;;;5.96;80.69;99723.78;118956;1157;65110;-81
2021/01/20 00:25:18;;;;;;;7.37;5.07;;;;;;;5.97;81.01;99724.59;118762;1157;65111;-83
2021/01/20 00:27:44;;;;;;;5.70;4.13;;;;;;;5.95;81.38;99710.77;118839;1157;65297;-80
2021/01/20 00:30:11;;;;;;;5.87;3.93;;;;;;;5.91;81.43;99711.09;118842;1157;65107;-80
2021/01/20 00:32:37;;;;;;;7.00;4.43;;;;;;;5.90;81.49;99716.52;118763;1157;65086;-81
2021/01/20 00:35:07;;;;;;;6.33;4.10;;;;;;;5.88;80.71;99723.77;118867;1157;65076;-80
2021/01/20 00:37:35;;;;;;;5.90;4.33;;;;;;;5.87;81.14;99727.40;118894;1157;65053;-83
2021/01/20 00:40:03;;;;;;;5.95;3.80;;;;;;;5.85;81.13;99726.75;119001;1157;65954;-82
2021/01/20 00:42:29;;;;;;;5.75;3.50;;;;;;;5.83;80.62;99723.45;118635;1157;65172;-82
2021/01/20 00:44:55;;;;;;;6.40;4.80;;;;;;;5.83;79.98;99733.98;119025;1157;65248;-81
2021/01/20 00:47:22;;;;;;;6.30;4.43;;;;;;;5.82;80.31;99732.33;119005;1157;65050;-82
2021/01/20 00:49:48;;;;;;;5.17;3.70;;;;;;;5.80;79.50;99710.62;119146;1157;65159;-81
2021/01/20 00:52:14;;;;;;;8.80;4.10;;;;;;;5.81;79.01;99709.64;118844;1157;66301;-83
2021/01/20 00:54:40;;;;;;;5.57;3.87;;;;;;;5.81;79.11;99705.20;118729;1157;65140;-81
2021/01/20 00:57:08;;;;;;;7.47;4.90;;;;;;;5.78;78.84;99694.17;118578;1157;65196;-83
2021/01/20 00:59:34;;;;;;;4.73;3.27;;;;;;;5.76;78.96;99689.10;118674;1157;65239;-81
2021/01/20 01:02:02;;;;;;;5.17;3.27;;;;;;;5.75;79.23;99676.11;118804;1157;65117;-82
2021/01/20 01:04:29;;;;;;;7.97;4.50;;;;;;;5.73;79.50;99674.45;118780;1157;65029;-80
2021/01/20 01:06:55;;;;;;;6.83;4.70;;;;;;;5.73;80.03;99674.45;118604;1157;65221;-81
2021/01/20 01:09:21;;;;;;;7.10;4.73;;;;;;;5.73;78.78;99681.53;119064;1157;65174;-80
2021/01/20 01:11:48;;;;;;;6.10;3.97;;;;;;;5.71;78.98;99667.72;118767;1157;66219;-81
2021/01/20 01:14:14;;;;;;;6.33;4.13;;;;;;;5.71;79.34;99678.24;119241;1157;65132;-82
2021/01/20 01:16:40;;;;;;;6.73;3.80;;;;;;;5.71;78.25;99679.05;118849;1157;65621;-83
2021/01/20 01:19:07;;;;;;;5.83;4.03;;;;;;;5.71;78.60;99662.45;118914;1157;65436;-84
2021/01/20 01:21:34;;;;;;;5.20;3.62;;;;;;;5.71;78.00;99668.53;119394;1157;65220;-81
2021/01/20 01:24:00;;;;;;;8.35;4.17;;;;;;;5.69;78.34;99659.98;119113;1157;65127;-81
2021/01/20 01:26:27;;;;;;;5.93;4.07;;;;;;;5.68;78.63;99662.80;118885;1157;66119;-82
2021/01/20 01:28:53;;;;;;;5.20;3.70;;;;;;;5.66;77.76;99657.70;118876;1157;66173;-83
2021/01/20 01:31:20;;;;;;;4.07;2.87;;;;;;;5.66;78.52;99655.07;118683;1157;65214;-81
2021/01/20 01:33:46;;;;;;;5.50;3.73;;;;;;;5.64;77.68;99646.52;118574;1157;65201;-82
2021/01/20 01:36:13;;;;;;;4.77;3.40;;;;;;;5.61;77.27;99646.88;118892;1157;65121;-81
2021/01/20 01:38:39;;;;;;;5.47;3.20;;;;;;;5.58;77.53;99647.20;118756;1157;66242;-80
2021/01/20 01:41:06;;;;;;;6.90;3.90;;;;;;;5.59;77.53;99656.75;118594;1157;65044;-81
2021/01/20 01:43:32;;;;;;;4.33;3.07;;;;;;;5.61;77.92;99657.40;118506;1157;65226;-81
2021/01/20 01:45:58;;;;;;;4.00;2.73;;;;;;;5.62;77.37;99656.39;118655;1157;65140;-81
2021/01/20 01:48:24;;;;;;;5.87;3.70;;;;;;;5.60;77.93;99645.22;118561;1157;65132;-82
2021/01/20 01:50:54;;;;;;;5.90;3.50;;;;;;;5.61;77.34;99662.66;118419;1157;66211;-83
2021/01/20 01:53:39;;;;;;;7.00;4.00;;;;;;;5.62;77.82;99651.13;118541;1157;65320;-81
2021/01/20 01:56:05;;;;;;;4.73;2.83;;;;;;;5.61;77.27;99635.51;118832;1157;65136;-81
2021/01/20 01:58:34;;;;;;;6.93;3.70;;;;;;;5.59;77.65;99643.59;119193;1157;65118;-81
2021/01/20 02:01:02;;;;;;;6.10;4.27;;;;;;;5.59;78.09;99633.06;118661;1157;65066;-81
2021/01/20 02:03:28;;;;;;;4.30;2.80;;;;;;;5.59;77.79;99642.75;118467;1157;65117;-81
2021/01/20 02:05:54;;;;;;;6.00;3.53;;;;;;;5.58;77.98;99623.52;119111;1157;65577;-81
2021/01/20 02:08:21;;;;;;;6.53;4.43;;;;;;;5.59;78.05;99643.59;118818;1157;65159;-82
2021/01/20 02:10:47;;;;;;;5.13;3.60;;;;;;;5.60;77.57;99624.17;118482;1157;65196;-80
2021/01/20 02:13:36;;;;;;;7.05;4.87;;;;;;;5.59;78.05;99619.91;118517;1157;65140;-81
2021/01/20 02:16:30;;;;;;;5.55;4.15;;;;;;;5.58;77.38;99620.08;118564;1157;65117;-82
2021/01/20 02:18:58;;;;;;;5.63;2.53;;;;;;;5.56;76.66;99622.05;118813;1155;65146;-81
2021/01/20 02:21:33;;;;;;;5.83;3.43;;;;;;;5.54;77.44;99616.14;118953;1157;65265;-83
2021/01/20 02:24:05;;;;;;;6.10;3.47;;;;;;;5.51;77.70;99606.78;119063;1157;65230;-81
2021/01/20 02:26:48;;;;;;;7.30;3.93;;;;;;;5.48;77.12;99605.31;118497;1157;64670;-81
2021/01/20 02:29:41;;;;;;;5.03;3.33;;;;;;;5.46;77.61;99603.81;118549;1157;65223;-81
2021/01/20 02:32:09;;;;;;;7.20;3.03;;;;;;;5.44;77.05;99604.01;119231;1157;65056;-80
2021/01/20 02:34:37;;;;;;;7.70;4.05;;;;;;;5.44;77.39;99604.01;118522;1157;65191;-81
2021/01/20 02:37:05;;;;;;;5.97;3.60;;;;;;;5.42;77.92;99602.51;118747;1157;65141;-79
2021/01/20 02:39:33;;;;;;;8.10;4.07;;;;;;;5.42;77.92;99605.14;118618;1157;65191;-82
2021/01/20 02:42:05;;;;;;;6.37;3.80;;;;;;;5.42;77.29;99615.66;118812;1155;65140;-81
2021/01/20 02:44:39;;;;;;;7.00;4.37;;;;;;;5.42;77.46;99613.03;118572;1157;65860;-80
2021/01/20 02:47:07;;;;;;;;;;;;;;;5.40;77.87;99617.63;118886;1157;66315;-80
2021/01/20 02:49:35;;;;;;;8.47;4.20;;;;;;;5.38;78.17;99615.20;118667;1157;65563;-80
2021/01/20 02:52:13;;;;;;;5.53;3.53;;;;;;;5.36;77.73;99611.91;118841;1157;65015;-80
2021/01/20 02:54:42;;;;;;;6.87;3.53;;;;;;;5.34;77.90;99618.33;118898;1157;65174;-80
2021/01/20 02:57:10;;;;;;;6.43;3.67;;;;;;;5.31;77.27;99622.94;118753;1155;65149;-80
2021/01/20 02:59:38;;;;;;;5.35;3.55;;;;;;;5.28;77.78;99610.11;119324;1157;65843;-80
2021/01/20 03:02:13;;;;;;;5.33;3.07;;;;;;;5.25;77.17;99610.45;118626;1157;65175;-79
2021/01/20 03:04:44;;;;;;;5.33;3.50;;;;;;;5.23;77.14;99620.31;118964;1157;65133;-80
2021/01/20 03:07:21;;;;;;;5.53;3.10;;;;;;;5.21;76.73;99608.33;118683;1157;66208;-80
2021/01/20 03:09:55;;;;;;;3.23;2.10;;;;;;;5.18;76.41;99608.65;119273;1157;66276;-82
2021/01/20 03:12:29;;;;;;;5.63;2.77;;;;;;;5.17;77.15;99605.20;118643;1157;65674;-79
2021/01/20 03:15:01;;;;;;;5.15;2.70;;;;;;;5.15;76.73;99603.73;118849;1155;65133;-81
2021/01/20 03:17:31;;;;;;;7.13;3.60;;;;;;;5.11;76.73;99593.54;119082;1157;65127;-81
2021/01/20 03:19:58;;;;;;;7.07;2.37;;;;;;;5.07;76.02;99584.34;118614;1157;65583;-79
2021/01/20 03:22:24;;;;;;;5.30;2.50;;;;;;;5.04;75.95;99575.98;118811;1157;65183;-79
2021/01/20 03:24:51;;;;;;;6.77;2.27;;;;;;;5.01;75.36;99571.05;118303;1157;65131;-80
2021/01/20 03:27:17;;;;;;;2.57;1.80;;;;;;;5.01;74.75;99587.63;118458;1157;65191;-79
2021/01/20 03:29:43;;;;;;;5.10;2.70;;;;;;;5.02;75.60;99583.22;118798;1157;65072;-79
2021/01/20 03:32:13;;;;;;;3.80;2.00;;;;;;;4.99;74.52;99581.72;118507;1157;65044;-80
2021/01/20 03:34:39;;;;;;;4.10;1.60;;;;;;;4.98;74.62;99574.02;118802;1157;65092;-80
2021/01/20 03:37:07;;;;;;;3.37;2.00;;;;;;;4.97;74.81;99577.62;118557;1157;65310;-80
2021/01/20 03:39:33;;;;;;;5.50;1.80;;;;;;;4.97;74.42;99586.31;118862;1157;65140;-81
2021/01/20 03:41:59;;;;;;;6.20;2.43;;;;;;;4.99;73.36;99579.09;118511;1157;64879;-81
2021/01/20 03:44:25;;;;;;;4.33;2.03;;;;;;;4.99;73.48;99584.34;118773;1157;65130;-80
2021/01/20 03:46:51;;;;;;;5.60;2.30;;;;;;;5.00;74.14;99574.67;119560;1157;66329;-82
2021/01/20 03:49:18;;;;;;;5.50;2.03;;;;;;;5.01;73.71;99584.19;118522;1157;65076;-79
2021/01/20 03:51:47;;;;;;;4.45;2.60;;;;;;;5.03;74.59;99582.22;118406;1157;65137;-79
2021/01/20 03:54:13;;;;;;;5.77;2.47;;;;;;;5.05;75.03;99572.36;118337;1157;65131;-80
2021/01/20 03:56:40;;;;;;;4.67;2.00;;;;;;;5.06;74.33;99574.02;118623;1157;65046;-79
2021/01/20 03:59:07;;;;;;;6.57;2.67;;;;;;;5.07;74.06;99578.27;118502;1157;65759;-80
2021/01/20 04:01:34;;;;;;;8.17;2.70;;;;;;;5.06;74.22;99580.09;118698;1157;66313;-81
2021/01/20 04:04:02;;;;;;;3.77;2.50;;;;;;;5.08;74.23;99582.55;118602;1157;65122;-80
2021/01/20 04:06:29;;;;;;;4.73;2.27;;;;;;;5.07;73.90;99580.90;118894;1157;65584;-80
2021/01/20 04:08:55;;;;;;;7.83;2.83;;;;;;;5.06;74.51;99576.64;118686;1157;65130;-79
2021/01/20 04:11:22;;;;;;;3.77;2.23;;;;;;;5.03;73.45;99590.10;118366;1157;65072;-81
2021/01/20 04:13:49;;;;;;;5.73;2.60;;;;;;;5.02;74.64;99573.52;118784;1157;65265;-80
2021/01/20 04:16:15;;;;;;;3.27;2.03;;;;;;;5.00;73.80;99570.23;118636;1157;65114;-79
2021/01/20 04:18:42;;;;;;;8.57;2.93;;;;;;;4.98;74.72;99577.47;118542;1157;65127;-79
2021/01/20 04:21:09;;;;;;;6.70;2.80;;;;;;;4.96;74.59;99563.67;118792;1155;65133;-81
2021/01/20 04:23:37;;;;;;;5.00;2.30;;;;;;;4.95;73.91;99566.45;118402;1157;65134;-81
2021/01/20 04:26:07;;;;;;;5.55;2.35;;;;;;;4.92;74.65;99572.05;118479;1157;65561;-80
2021/01/20 04:28:35;;;;;;;3.87;1.60;;;;;;;4.88;74.24;99553.98;118521;1157;65154;-82
2021/01/20 04:31:02;;;;;;;4.53;2.73;;;;;;;4.88;74.44;99540.84;119018;1157;65143;-84
2021/01/20 04:33:29;;;;;;;5.63;2.40;;;;;;;4.87;74.49;99539.20;118741;1157;65609;-80
2021/01/20 04:35:56;;;;;;;5.45;1.95;;;;;;;4.87;74.13;99544.47;118797;1157;65079;-81
2021/01/20 04:38:23;;;;;;;6.87;2.37;;;;;;;4.91;73.81;99542.34;118493;1157;65155;-81
2021/01/20 04:41:03;;;;;;;5.47;2.30;;;;;;;4.92;73.59;99537.89;118472;1157;65134;-81
2021/01/20 04:43:29;;;;;;;4.30;2.40;;;;;;;4.91;74.59;99539.70;118355;1157;65088;-81
2021/01/20 04:45:56;;;;;;;6.30;2.40;;;;;;;4.94;74.26;99541.17;118639;1157;65146;-81
2021/01/20 04:48:31;;;;;;;6.57;2.87;;;;;;;4.95;73.47;99535.77;118725;1157;63198;-80
2021/01/20 04:51:04;;;;;;;4.70;2.70;;;;;;;4.98;74.61;99548.55;118485;1157;66465;-79
2021/01/20 04:53:32;;;;;;;6.33;2.93;;;;;;;5.00;74.12;99533.44;118860;1157;65118;-80
2021/01/20 04:56:09;;;;;;;3.47;1.80;;;;;;;5.03;74.06;99527.84;118599;1157;65194;-79
2021/01/20 04:58:35;;;;;;;7.10;2.90;;;;;;;5.06;74.07;99529.33;118359;1157;65127;-79
2021/01/20 05:01:02;;;;;;;5.93;2.77;;;;;;;5.08;73.19;99524.73;118375;1157;65079;-80
2021/01/20 05:03:29;;;;;;;5.50;2.47;;;;;;;5.09;72.77;99521.09;118729;1157;65204;-80
2021/01/20 05:06:10;;;;;;;4.70;2.10;;;;;;;5.09;73.16;99531.61;118590;1157;65113;-78
2021/01/20 05:08:37;;;;;;;5.50;2.50;;;;;;;5.11;72.90;99519.12;119134;1157;65134;-81
2021/01/20 05:11:03;;;;;;;5.87;2.80;;;;;;;5.14;72.37;99525.84;119019;1157;65140;-80
2021/01/20 05:13:31;;;;;;;4.13;2.50;;;;;;;5.13;72.13;99517.14;118781;1157;65081;-80
2021/01/20 05:15:58;;;;;;;7.17;2.40;;;;;;;5.15;71.99;99516.98;118382;1157;65107;-81
2021/01/20 05:18:25;;;;;;;5.50;3.37;;;;;;;5.17;72.86;99512.38;118407;1157;65018;-79
2021/01/20 05:20:51;;;;;;;5.43;2.50;;;;;;;5.16;72.48;99502.84;118634;1156;65123;-81
2021/01/20 05:23:25;;;;;;;5.10;1.60;;;;;;;5.16;71.21;99506.28;118455;1157;65159;-80
2021/01/20 05:25:51;;;;;;;3.50;1.80;;;;;;;5.14;71.18;99504.81;118501;1157;65847;-79
2021/01/20 05:28:23;;;;;;;5.30;2.80;;;;;;;5.15;72.31;99503.84;118687;1157;65107;-79
2021/01/20 05:30:53;;;;;;;5.70;2.70;;;;;;;5.14;72.19;99500.37;118614;1157;65132;-79
2021/01/20 05:33:24;;;;;;;6.07;2.40;;;;;;;5.15;71.69;99504.66;119253;1157;65134;-82
2021/01/20 05:36:11;;;;;;;4.33;2.03;;;;;;;5.15;71.22;99511.73;118918;1157;65061;-82
2021/01/20 05:38:45;;;;;;;5.35;2.35;;;;;;;5.13;71.42;99501.38;118889;1157;65112;-79
2021/01/20 05:41:22;;;;;;;5.37;2.17;;;;;;;5.15;71.14;99504.66;118538;1157;65253;-80
2021/01/20 05:43:51;;;;;;;4.70;2.80;;;;;;;5.16;71.55;99500.20;118850;1157;65124;-83
2021/01/20 05:46:31;;;;;;;3.43;1.80;;;;;;;5.15;71.48;99502.02;118873;1155;65134;-83
2021/01/20 05:48:57;;;;;;;6.85;2.25;;;;;;;5.14;71.26;99505.63;118455;1157;65115;-80
2021/01/20 05:51:24;;;;;;;6.03;2.47;;;;;;;5.12;71.94;99499.72;118366;1155;64375;-80
2021/01/20 05:53:55;;;;;;;4.43;2.30;;;;;;;5.13;71.88;99490.05;118452;1157;65265;-79
2021/01/20 05:56:39;;;;;;;5.90;3.07;;;;;;;5.13;72.57;99490.86;118415;1157;66002;-80
2021/01/20 05:59:11;;;;;;;3.87;1.80;;;;;;;5.10;71.17;99491.20;118669;1157;65133;-79
2021/01/20 06:01:38;;;;;;;4.93;1.80;;;;;;;5.10;72.84;99492.02;118855;1156;65104;-84
2021/01/20 06:04:05;;;;;;;5.83;2.57;;;;;;;5.10;72.13;99488.58;118483;1157;65153;-80
2021/01/20 06:06:33;;;;;;;4.80;3.10;;;;;;;5.11;71.72;99484.95;118485;1157;65191;-80
2021/01/20 06:09:03;;;;;;;5.23;2.67;;;;;;;5.10;72.33;99485.95;118639;1157;65196;-79
2021/01/20 06:11:29;;;;;;;3.87;1.70;;;;;;;5.08;72.26;99472.97;119113;1157;65118;-80
2021/01/20 06:14:00;;;;;;;4.93;2.83;;;;;;;5.08;72.24;99478.23;118765;1157;65584;-80
2021/01/20 06:16:29;;;;;;;4.40;2.00;;;;;;;5.08;72.75;99482.67;118495;1157;65092;-80
2021/01/20 06:19:10;;;;;;;4.93;2.00;;;;;;;5.07;72.57;99486.27;118956;1157;65130;-81
2021/01/20 06:21:36;;;;;;;5.10;2.23;;;;;;;5.04;72.40;99473.48;118501;1157;65206;-79
2021/01/20 06:24:10;;;;;;;3.53;1.67;;;;;;;5.03;73.05;99480.52;118400;1157;65204;-84
2021/01/20 06:26:45;;;;;;;2.93;1.80;;;;;;;5.01;72.61;99479.06;118564;1157;65079;-81
2021/01/20 06:29:16;;;;;;;4.63;2.77;;;;;;;4.98;73.63;99474.16;118381;1157;65190;-80
2021/01/20 06:31:46;;;;;;;6.00;2.40;;;;;;;4.95;73.02;99469.22;118398;1157;65158;-78
2021/01/20 06:34:13;;;;;;;9.10;2.67;;;;;;;4.92;73.75;99466.94;118857;1157;65132;-80
2021/01/20 06:36:39;;;;;;;4.80;2.50;;;;;;;4.92;73.33;99477.45;118745;1157;65139;-80
2021/01/20 06:39:27;;;;;;;10.37;3.00;;;;;;;4.89;73.63;99473.36;118722;1157;65134;-80
2021/01/20 06:41:58;;;;;;;4.30;1.80;;;;;;;4.88;73.77;99479.59;118625;1157;64999;-80
2021/01/20 06:44:24;;;;;;;3.50;2.00;;;;;;;4.88;74.69;99477.77;118368;1157;65226;-78
2021/01/20 06:46:56;;;;;;;4.93;2.60;;;;;;;4.90;74.30;99480.23;118508;1157;65164;-79
2021/01/20 06:49:30;;;;;;;2.60;1.25;;;;;;;4.92;74.70;99469.56;118525;1157;65094;-78
2021/01/20 06:52:14;;;;;;;2.93;2.10;;;;;;;4.93;73.72;99476.45;118325;1156;65239;-80
2021/01/20 06:54:42;;;;;;;6.23;2.40;;;;;;;4.97;73.90;99470.69;118866;1156;65155;-80
2021/01/20 06:57:36;;;;;;;3.43;1.93;;;;;;;5.01;74.30;99464.10;118568;1157;65679;-79
2021/01/20 07:00:08;;;;;;;5.40;2.30;;;;;;;5.03;73.71;99459.50;118629;1157;65121;-78
2021/01/20 07:03:04;;;;;;;6.37;2.83;;;;;;;5.08;74.41;99457.20;119122;1157;65073;-79
2021/01/20 07:05:50;;;;;;;3.80;2.33;;;;;;;5.13;74.51;99459.31;118615;1157;65133;-77
2021/01/20 07:08:16;;;;;;;5.30;1.77;;;;;;;5.15;74.32;99454.70;118235;1157;65075;-80
2021/01/20 07:10:57;;;;;;;3.43;1.63;;;;;;;5.18;74.09;99446.46;118497;1157;65178;-81
2021/01/20 07:13:34;;;;;;;4.33;1.73;;;;;;;5.20;73.05;99439.23;118556;1157;65156;-79
2021/01/20 07:16:04;;;;;;;3.93;1.40;;;;;;;5.21;73.44;99448.77;118437;1157;65161;-78
2021/01/20 07:18:39;;;;;;;3.40;2.07;;;;;;;5.17;74.06;99439.58;118351;1157;65036;-80
2021/01/20 07:21:09;;;;;;;4.47;1.50;;;;;;;5.15;74.87;99451.27;118833;1157;65167;-81
2021/01/20 07:23:56;;;;;;;5.00;2.17;;;;;;;5.17;73.81;99452.73;118481;1157;65274;-79
2021/01/20 07:26:23;;;;;;;3.87;2.40;;;;;;;5.21;74.07;99443.52;119192;1157;65118;-80
2021/01/20 07:28:50;;;;;;;3.93;1.80;;;;;;;5.21;73.91;99443.52;118506;1157;65219;-81
2021/01/20 07:31:16;;;;;;;5.27;1.80;;;;;;;5.22;74.25;99447.77;118435;1157;65194;-80
2021/01/20 07:33:52;;;;;;;2.13;1.30;;;;;;;5.27;74.21;99445.45;118842;1157;65134;-79
2021/01/20 07:36:21;;;;;;;3.93;1.97;;;;;;;5.28;73.53;99443.64;118967;1157;65011;-79
2021/01/20 07:38:48;;;;;;;2.80;2.13;;;;;;;5.31;73.08;99414.36;118398;1157;65111;-80
2021/01/20 07:41:20;;;;;;;5.40;2.35;;;;;;;5.32;72.24;99437.05;118329;1157;65110;-80
2021/01/20 07:43:53;;;;;;;4.80;2.30;;;;;;;5.38;72.73;99414.52;118382;1157;63906;-81
2021/01/20 07:46:23;;;;;;;3.47;1.90;;;;;;;5.39;72.44;99426.66;118456;1157;65167;-82
2021/01/20 07:48:50;;;;;;;4.00;1.70;;;;;;;5.41;72.25;99429.94;118535;1157;65763;-79
2021/01/20 07:51:24;;;;;;;6.43;2.03;;;;;;;5.40;72.40;99417.77;118804;1157;65132;-80
2021/01/20 07:54:02;;;;;;;3.77;2.00;;;;;;;5.40;72.27;99413.34;118722;1156;65102;-81
2021/01/20 07:56:29;;;;;;;7.60;2.23;;;;;;;5.41;72.01;99416.78;118882;1157;65130;-80
2021/01/20 07:58:57;;;;;;;4.77;1.80;;;;;;;5.42;72.44;99415.78;118438;1157;65099;-79
2021/01/20 08:01:28;;;;;;;4.10;2.40;;;;;;;5.42;72.40;99421.04;119119;1157;65218;-78
2021/01/20 08:03:56;;;;;;;4.37;1.90;;;;;;;5.43;71.69;99415.62;118468;1157;65249;-79
2021/01/20 08:06:40;;;;;;;4.27;2.33;;;;;;;5.45;71.62;99410.19;118640;1157;65180;-78
2021/01/20 08:09:06;;;;;;;5.03;1.70;;;;;;;5.47;70.95;99413.47;118711;1157;66287;-81
2021/01/20 08:11:33;;;;;;;4.37;1.57;;;;;;;5.46;70.40;99414.44;118984;1157;65159;-80
2021/01/20 08:14:01;;;;;;;3.77;2.03;;;;;;;5.43;70.26;99414.80;118436;1157;64534;-79
2021/01/20 08:16:29;;;;;;;7.23;2.77;;;;;;;5.43;69.84;99412.98;119054;1157;66051;-80
2021/01/20 08:18:55;;;;;;;2.90;2.00;;;;;;;5.45;70.41;99420.71;118763;1157;65121;-81
2021/01/20 08:21:22;;;;;;;3.53;2.30;;;;;;;5.44;70.22;99419.06;118573;1160;65104;-79
2021/01/20 08:23:55;;;;;;;6.37;2.87;;;;;;;5.45;70.66;99428.60;118491;1157;65177;-80
2021/01/20 08:26:29;;;;;;;2.55;1.60;;;;;;;5.44;69.87;99434.84;118655;1157;65193;-80
2021/01/20 08:29:03;;;;;;;3.67;2.03;;;;;;;5.45;70.15;99433.86;118449;1157;65265;-79
2021/01/20 08:31:29;;;;;;;3.40;1.70;;;;;;;5.47;69.78;99434.51;118698;1157;65181;-78
2021/01/20 08:34:22;;;;;;;3.70;1.80;;;;;;;5.48;69.28;99426.45;118568;1157;65196;-79
2021/01/20 08:36:56;;;;;;;3.47;2.23;;;;;;;5.55;69.55;99442.36;119249;1157;65053;-78
2021/01/20 08:39:25;;;;;;;2.65;1.47;;;;;;;5.59;68.53;99441.02;119021;1157;65181;-79
2021/01/20 08:42:21;;;;;;;2.13;1.27;;;;;;;5.62;67.65;99440.66;118542;1157;65015;-78
2021/01/20 08:45:03;;;;;;;3.77;1.60;;;;;;;5.65;67.76;99432.44;118543;1157;65136;-80
2021/01/20 08:47:30;;;;;;;4.20;2.03;;;;;;;5.68;67.11;99434.71;119137;1157;64217;-77
2021/01/20 08:49:57;;;;;;;2.33;1.23;;;;;;;5.72;66.93;99438.63;118729;1157;65117;-80
2021/01/20 08:52:23;;;;;;;2.83;1.77;;;;;;;5.78;66.29;99446.81;119059;1157;65052;-78
2021/01/20 08:54:51;;;;;;;2.60;1.33;;;;;;;5.83;66.69;99431.33;118545;1157;65108;-78
2021/01/20 08:57:21;;;;;;;3.80;1.77;;;;;;;5.84;65.95;99430.33;118880;1157;65149;-78
2021/01/20 08:59:56;;;;;;;3.87;1.67;;;;;;;5.84;66.07;99432.95;118586;1157;65070;-80
2021/01/20 09:02:23;;;;;;;4.17;1.83;;;;;;;5.85;65.13;99424.08;118731;1156;65083;-78
2021/01/20 09:04:50;;;;;;;3.97;1.87;;;;;;;5.89;64.99;99428.00;118540;1157;65528;-78
2021/01/20 09:07:17;;;;;;;3.77;1.60;;;;;;;5.89;63.96;99420.92;118415;1157;65139;-76
2021/01/20 09:09:44;;;;;;;4.17;1.70;;;;;;;5.91;64.89;99426.02;118712;1157;65120;-78
2021/01/20 09:12:11;;;;;;;2.30;1.40;;;;;;;5.92;65.05;99427.64;118988;1157;65185;-76
2021/01/20 09:14:38;;;;;;;3.57;2.30;;;;;;;5.96;64.74;99442.12;118858;1157;65137;-77
2021/01/20 09:17:06;;;;;;;3.97;2.17;;;;;;;6.01;64.37;99431.05;118433;1157;65144;-77
2021/01/20 09:19:33;;;;;;;3.30;2.10;;;;;;;6.05;64.20;99432.34;118373;1157;65205;-76
2021/01/20 09:21:59;;;;;;;3.13;1.93;;;;;;;6.06;63.68;99420.83;118305;1157;65050;-78
2021/01/20 09:24:26;;;;;;;3.90;1.85;;;;;;;6.09;64.78;99437.07;118423;1157;65138;-77
2021/01/20 09:26:52;;;;;;;4.10;2.00;;;;;;;6.10;63.75;99440.55;118328;1157;65150;-79
2021/01/20 09:29:18;;;;;;;3.90;1.90;;;;;;;6.13;64.72;99440.99;118497;1157;65169;-79
2021/01/20 09:31:45;;;;;;;3.67;2.10;;;;;;;6.17;64.48;99435.39;118751;1157;65191;-80
2021/01/20 09:34:11;;;;;;;5.13;2.33;;;;;;;6.21;64.06;99434.85;118931;1157;65047;-78
2021/01/20 09:36:37;;;;;;;4.60;1.80;;;;;;;6.27;64.17;99435.97;118404;1157;65196;-77
2021/01/20 09:39:04;;;;;;;3.07;1.70;;;;;;;6.31;64.20;99442.48;118413;1157;65137;-78
2021/01/20 09:41:30;;;;;;;3.57;1.90;;;;;;;6.38;63.93;99432.89;118264;1157;65131;-77
2021/01/20 09:43:57;;;;;;;3.80;1.47;;;;;;;6.43;63.77;99425.26;118553;1157;65132;-79
2021/01/20 09:46:23;;;;;;;2.97;1.60;;;;;;;6.46;63.56;99419.66;118463;1157;65130;-76
2021/01/20 09:48:49;;;;;;;4.90;1.50;;;;;;;6.48;63.81;99424.72;118225;1157;65250;-77
2021/01/20 09:51:16;;;;;;;4.90;1.90;;;;;;;6.49;63.87;99418.47;118233;1157;65233;-80
2021/01/20 09:53:42;;;;;;;2.83;1.47;;;;;;;6.52;63.81;99428.63;118238;1157;65215;-76
2021/01/20 09:56:08;;;;;;;3.10;1.80;;;;;;;6.55;63.53;99422.21;118348;1157;65117;-77
2021/01/20 09:58:41;;;;;;;3.43;1.83;;;;;;;6.57;63.93;99428.09;118253;1157;65143;-78
2021/01/20 10:01:07;;;;;;;3.10;1.40;;;;;;;6.57;63.17;99426.30;118514;1157;65138;-78
2021/01/20 10:03:33;;;;;;;3.67;1.80;;;;;;;6.62;64.18;99423.92;118518;1157;65284;-77
2021/01/20 10:06:00;;;;;;;4.00;2.00;;;;;;;6.68;62.81;99432.94;118325;1157;65235;-77
2021/01/20 10:08:26;;;;;;;3.33;1.73;;;;;;;6.74;63.01;99432.22;118507;1157;65136;-78
2021/01/20 10:10:52;;;;;;;3.47;1.33;;;;;;;6.80;62.86;99426.22;118121;1157;65148;-78
2021/01/20 10:13:21;;;;;;;2.10;1.20;;;;;;;6.84;63.07;99416.95;118280;1157;65191;-79
2021/01/20 10:15:48;;;;;;;2.13;1.27;;;;;;;6.88;61.97;99412.92;118262;1157;65114;-78
2021/01/20 10:18:15;;;;;;;3.83;1.60;;;;;;;6.93;62.48;99423.77;118264;1157;65200;-77
2021/01/20 10:20:44;;;;;;;2.80;1.67;;;;;;;6.99;63.27;99414.31;118139;1157;65140;-77
2021/01/20 10:23:11;;;;;;;3.10;1.47;;;;;;;7.04;61.82;99405.84;118255;1157;65104;-78
2021/01/20 10:25:37;;;;;;;3.50;1.80;;;;;;;7.07;61.59;99411.55;118345;1155;65144;-79
2021/01/20 10:28:03;;;;;;;2.73;1.80;;;;;;;7.14;62.03;99401.11;118331;1157;65300;-77
2021/01/20 10:30:29;;;;;;;2.50;1.30;;;;;;;7.21;61.80;99402.00;118570;1157;65154;-78
2021/01/20 10:32:56;;;;;;;2.60;1.30;;;;;;;7.24;61.04;99412.16;118617;1157;65139;-81
2021/01/20 10:35:23;;;;;;;3.10;1.50;;;;;;;7.28;61.62;99402.07;118909;1157;65047;-78
2021/01/20 10:37:49;;;;;;;4.50;1.80;;;;;;;7.30;60.41;99406.16;118365;1157;65185;-77
2021/01/20 10:40:16;;;;;;;3.20;2.00;;;;;;;7.34;61.88;99406.61;118418;1157;65194;-78
2021/01/20 10:42:42;;;;;;;2.90;1.20;;;;;;;7.35;61.75;99409.07;118218;1157;65185;-79
2021/01/20 10:45:09;;;;;;;2.87;1.37;;;;;;;7.38;62.16;99391.23;118320;1157;65130;-80
2021/01/20 10:47:35;;;;;;;3.70;1.60;;;;;;;7.41;61.80;99390.85;118513;1155;65139;-79
2021/01/20 10:50:05;;;;;;;2.80;1.67;;;;;;;7.45;61.00;99385.01;118429;1157;65158;-77
2021/01/20 10:52:32;;;;;;;3.05;1.30;;;;;;;7.51;60.85;99378.17;118272;1157;65228;-78
2021/01/20 10:54:58;;;;;;;4.10;1.80;;;;;;;7.56;60.81;99381.06;118414;1157;65133;-81
2021/01/20 10:57:24;;;;;;;3.33;1.80;;;;;;;7.67;60.92;99383.22;118486;1157;65180;-79
2021/01/20 10:59:51;;;;;;;3.87;1.77;;;;;;;7.71;59.99;99384.48;118689;1157;66793;-78
2021/01/20 11:02:17;;;;;;;2.73;1.13;;;;;;;7.73;59.82;99378.98;118588;1157;65134;-78
2021/01/20 11:04:44;;;;;;;2.20;1.30;;;;;;;7.79;60.00;99380.07;118317;1157;65195;-78
2021/01/20 11:07:12;;;;;;;3.43;1.30;;;;;;;7.80;59.21;99379.05;118402;1157;65054;-78
2021/01/20 11:09:39;;;;;;;4.83;1.60;;;;;;;7.81;58.94;99378.87;118456;1157;65577;-79
2021/01/20 11:12:05;;;;;;;2.90;1.75;;;;;;;7.84;58.64;99377.67;118372;1157;65245;-78
2021/01/20 11:14:32;;;;;;;2.60;1.60;;;;;;;7.88;60.07;99378.92;118244;1157;66260;-78
2021/01/20 11:16:58;;;;;;;2.53;1.10;;;;;;;7.86;59.08;99373.02;118367;1157;65137;-78
2021/01/20 11:19:28;;;;;;;2.15;1.20;;;;;;;7.88;59.22;99374.45;118362;1157;65220;-78
2021/01/20 11:21:56;;;;;;;2.63;1.40;;;;;;;7.90;59.44;99385.64;118507;1157;65236;-77
2021/01/20 11:24:23;;;;;;;3.23;1.53;;;;;;;7.98;59.01;99379.42;118386;1157;65201;-78
2021/01/20 11:26:50;;;;;;;2.63;1.50;;;;;;;8.03;58.82;99384.13;118418;1157;65210;-79
2021/01/20 11:29:16;;;;;;;2.43;1.20;;;;;;;8.07;58.84;99386.19;118277;1157;65140;-79
2021/01/20 11:31:50;;;;;;;3.03;1.50;;;;;;;8.05;57.41;99375.00;118417;1157;66189;-78
2021/01/20 11:34:16;;;;;;;5.67;1.40;;;;;;;8.10;57.28;99364.70;118493;1157;64022;-77
2021/01/20 11:36:43;;;;;;;3.87;1.60;;;;;;;8.18;57.90;99363.72;118678;1157;65018;-79
2021/01/20 11:39:09;;;;;;;3.10;1.50;;;;;;;8.26;57.51;99360.13;118702;1157;65056;-77
2021/01/20 11:41:55;;;;;;;2.20;1.10;;;;;;;8.33;57.65;99368.91;118246;1157;65253;-77
2021/01/20 11:44:30;;;;;;;2.87;1.60;;;;;;;8.45;58.48;99366.59;118714;1155;65060;-78